Time;durP1;ratioP1;P1;durP2;ratioP2;P2;SDS_P1;SDS_P2;PMS_P1;PMS_P2;Temp;Humidity;BMP_temperature;BMP_pressure;BME280_temperature;BME280_humidity;BME280_pressure;Samples;Min_cycle;Max_cycle;Signal;HPM_P1;HPM_P2
2022/03/06 00:00:46;;;;;;;8.63;5.28;;;3.80;75.60;;;;;;1891743;76;21112;-47
2022/03/06 00:03:16;;;;;;;9.95;6.62;;;3.80;75.50;;;;;;1891837;76;21034;-49
2022/03/06 00:05:45;;;;;;;9.18;6.53;;;3.80;76.30;;;;;;1891715;76;21096;-47
2022/03/06 00:08:14;;;;;;;10.45;6.05;;;3.80;75.70;;;;;;1891833;76;21077;-48
2022/03/06 00:10:44;;;;;;;9.65;4.67;;;3.90;75.90;;;;;;1891723;76;21030;-48
2022/03/06 00:13:14;;;;;;;7.55;4.55;;;3.80;74.20;;;;;;1891637;76;21031;-48
2022/03/06 00:15:44;;;;;;;8.35;5.65;;;3.80;73.80;;;;;;1891438;75;21023;-48
2022/03/06 00:18:13;;;;;;;9.33;6.17;;;3.80;74.90;;;;;;1891739;76;21039;-48
2022/03/06 00:20:43;;;;;;;11.80;5.67;;;3.80;75.40;;;;;;1891734;75;21038;-50
2022/03/06 00:23:12;;;;;;;6.00;4.85;;;3.80;75.70;;;;;;1891819;76;21518;-47
2022/03/06 00:25:41;;;;;;;9.90;5.87;;;3.80;75.30;;;;;;1891724;76;21101;-48
2022/03/06 00:28:10;;;;;;;9.35;5.83;;;3.90;75.80;;;;;;1882684;75;21071;-48
2022/03/06 00:30:42;;;;;;;5.62;4.35;;;3.90;76.10;;;;;;1872804;76;21053;-48
2022/03/06 00:33:11;;;;;;;7.25;5.42;;;3.90;75.60;;;;;;1872773;76;21130;-48
2022/03/06 00:35:41;;;;;;;8.13;5.42;;;3.90;75.80;;;;;;1872806;77;21027;-47
2022/03/06 00:38:10;;;;;;;8.40;5.78;;;3.90;76.20;;;;;;1872853;77;21097;-49
2022/03/06 00:40:42;;;;;;;9.53;6.10;;;3.90;76.20;;;;;;1872936;76;21031;-48
2022/03/06 00:43:10;;;;;;;9.23;5.75;;;4.00;75.60;;;;;;1872919;77;21481;-48
2022/03/06 00:45:39;;;;;;;8.80;5.95;;;3.90;75.80;;;;;;1872950;76;21097;-48
2022/03/06 00:48:08;;;;;;;7.40;4.80;;;3.90;75.50;;;;;;1872962;76;21019;-48
2022/03/06 00:50:38;;;;;;;9.33;6.20;;;3.90;75.60;;;;;;1872915;77;21031;-48
2022/03/06 00:53:08;;;;;;;7.70;5.85;;;3.90;75.90;;;;;;1872753;77;21023;-48
2022/03/06 00:55:39;;;;;;;10.98;5.87;;;3.90;75.90;;;;;;1872875;77;21102;-47
2022/03/06 00:58:09;;;;;;;7.58;5.12;;;3.90;75.80;;;;;;1872851;77;21027;-48
2022/03/06 01:00:40;;;;;;;10.53;6.33;;;3.90;75.80;;;;;;1872815;75;21031;-50
2022/03/06 01:03:12;;;;;;;10.15;6.40;;;3.90;75.80;;;;;;1872902;75;21047;-49
2022/03/06 01:05:42;;;;;;;9.53;6.60;;;3.90;76.30;;;;;;1873022;76;21047;-47
2022/03/06 01:08:12;;;;;;;7.95;5.53;;;3.90;76.20;;;;;;1872765;77;21031;-48
2022/03/06 01:10:44;;;;;;;7.75;5.75;;;3.90;75.50;;;;;;1872138;76;21122;-48
2022/03/06 01:13:14;;;;;;;7.28;5.35;;;3.90;76.00;;;;;;1872883;76;21543;-48
2022/03/06 01:15:43;;;;;;;7.95;5.40;;;3.90;75.90;;;;;;1872869;77;21007;-47
2022/03/06 01:18:12;;;;;;;11.95;6.35;;;3.90;76.10;;;;;;1872798;76;21031;-48
2022/03/06 01:20:42;;;;;;;7.67;5.45;;;3.90;76.20;;;;;;1872925;76;21084;-48
2022/03/06 01:23:11;;;;;;;7.90;5.85;;;3.90;75.90;;;;;;1872915;77;21016;-49
2022/03/06 01:25:40;;;;;;;9.30;6.00;;;3.90;76.20;;;;;;1873032;77;21039;-48
2022/03/06 01:28:10;;;;;;;12.78;6.03;;;3.90;76.70;;;;;;1872795;75;21063;-49
2022/03/06 01:30:39;;;;;;;9.95;6.00;;;4.00;76.80;;;;;;1872956;75;21003;-48
2022/03/06 01:33:09;;;;;;;10.58;6.12;;;4.00;76.50;;;;;;1872921;77;21145;-49
2022/03/06 01:35:38;;;;;;;8.83;5.72;;;4.00;76.80;;;;;;1872933;77;21007;-48
2022/03/06 01:38:07;;;;;;;10.72;6.08;;;4.00;76.70;;;;;;1872976;77;21054;-48
2022/03/06 01:40:37;;;;;;;8.68;5.97;;;4.10;77.00;;;;;;1872959;77;21066;-50
2022/03/06 01:43:06;;;;;;;8.10;5.53;;;4.10;76.90;;;;;;1872899;75;21035;-48
2022/03/06 01:45:36;;;;;;;8.33;5.35;;;4.10;77.10;;;;;;1872862;76;21136;-48
2022/03/06 01:48:09;;;;;;;8.33;5.33;;;4.20;76.50;;;;;;1872804;77;21007;-48
2022/03/06 01:50:38;;;;;;;10.08;5.55;;;4.20;76.70;;;;;;1872725;76;21023;-49
2022/03/06 01:53:12;;;;;;;9.78;5.65;;;4.20;76.20;;;;;;1872692;76;21129;-48
2022/03/06 01:55:42;;;;;;;8.57;5.80;;;4.10;75.80;;;;;;1873117;77;21035;-48
2022/03/06 01:58:13;;;;;;;12.70;5.65;;;4.10;76.30;;;;;;1872860;77;21089;-51
2022/03/06 02:00:48;;;;;;;8.78;5.83;;;4.10;76.40;;;;;;1872806;76;21007;-48
2022/03/06 02:03:19;;;;;;;9.03;5.05;;;4.10;76.50;;;;;;1872887;77;21457;-50
2022/03/06 02:05:48;;;;;;;8.68;5.85;;;4.10;76.00;;;;;;1872792;75;21015;-47
2022/03/06 02:08:17;;;;;;;7.78;5.60;;;4.10;76.50;;;;;;1872833;77;21007;-50
2022/03/06 02:10:49;;;;;;;9.93;5.60;;;4.10;76.50;;;;;;1872780;77;21063;-48
2022/03/06 02:13:19;;;;;;;13.32;5.85;;;4.10;76.30;;;;;;1872739;77;21038;-48
2022/03/06 02:15:49;;;;;;;7.45;5.22;;;4.00;76.20;;;;;;1872895;77;21116;-49
2022/03/06 02:18:19;;;;;;;10.85;5.83;;;4.10;76.90;;;;;;1872772;77;21027;-48
2022/03/06 02:20:49;;;;;;;12.45;7.22;;;4.10;76.50;;;;;;1872907;77;21027;-48
2022/03/06 02:23:18;;;;;;;10.75;5.83;;;4.10;76.70;;;;;;1872853;77;21043;-48
2022/03/06 02:25:48;;;;;;;6.78;4.87;;;4.10;76.00;;;;;;1872775;77;21110;-48
2022/03/06 02:28:17;;;;;;;9.93;6.17;;;4.00;75.30;;;;;;1872642;75;21035;-48
2022/03/06 02:30:47;;;;;;;9.38;5.70;;;4.00;74.80;;;;;;1872847;75;21077;-47
2022/03/06 02:33:17;;;;;;;7.92;5.03;;;4.00;74.70;;;;;;1872718;77;21144;-47
2022/03/06 02:35:46;;;;;;;8.45;5.78;;;3.90;74.90;;;;;;1872890;76;21082;-47
2022/03/06 02:38:15;;;;;;;10.78;5.80;;;3.90;75.80;;;;;;1872843;77;21093;-51
2022/03/06 02:40:45;;;;;;;8.33;5.67;;;3.80;75.40;;;;;;1872893;77;21074;-48
2022/03/06 02:43:15;;;;;;;7.53;5.85;;;3.80;75.30;;;;;;1872720;76;21485;-47
2022/03/06 02:45:45;;;;;;;9.73;5.95;;;3.80;75.60;;;;;;1872950;77;21112;-50
2022/03/06 02:48:14;;;;;;;9.28;5.95;;;3.80;75.60;;;;;;1872838;76;21015;-48
2022/03/06 02:50:43;;;;;;;11.00;6.12;;;3.80;75.80;;;;;;1872801;75;21102;-47
2022/03/06 02:53:13;;;;;;;6.40;4.17;;;3.80;75.70;;;;;;1872779;77;21097;-47
2022/03/06 02:55:43;;;;;;;9.25;4.40;;;3.70;75.60;;;;;;1872885;75;21023;-49
2022/03/06 02:58:12;;;;;;;10.82;3.87;;;3.70;75.50;;;;;;1872813;77;21004;-47
2022/03/06 03:00:42;;;;;;;11.45;6.55;;;3.70;75.50;;;;;;1872766;76;21019;-48
2022/03/06 03:03:11;;;;;;;5.30;4.47;;;3.70;75.90;;;;;;1872744;76;21003;-48
2022/03/06 03:05:40;;;;;;;6.83;3.92;;;3.60;75.90;;;;;;1872742;76;21019;-49
2022/03/06 03:08:10;;;;;;;4.35;3.70;;;3.60;75.90;;;;;;1872791;76;21027;-49
2022/03/06 03:10:39;;;;;;;7.05;5.35;;;3.60;75.80;;;;;;1872838;77;21035;-47
2022/03/06 03:13:08;;;;;;;8.15;3.83;;;3.60;76.00;;;;;;1872683;77;21031;-49
2022/03/06 03:15:38;;;;;;;7.25;3.72;;;3.60;76.10;;;;;;1872795;75;21035;-48
2022/03/06 03:18:07;;;;;;;8.03;3.50;;;3.60;75.90;;;;;;1872844;77;21023;-48
2022/03/06 03:20:37;;;;;;;8.00;4.28;;;3.60;76.00;;;;;;1872736;77;21074;-49
2022/03/06 03:23:06;;;;;;;6.17;4.47;;;3.50;76.30;;;;;;1872702;77;21113;-48
2022/03/06 03:25:35;;;;;;;9.15;5.85;;;3.50;76.00;;;;;;1872883;77;21011;-49
2022/03/06 03:28:05;;;;;;;8.95;5.05;;;3.50;76.30;;;;;;1872758;76;21031;-50
2022/03/06 03:30:34;;;;;;;5.30;3.77;;;3.60;76.50;;;;;;1872715;75;21071;-48
2022/03/06 03:33:04;;;;;;;6.50;4.40;;;3.60;76.00;;;;;;1872667;76;21055;-47
2022/03/06 03:35:33;;;;;;;4.58;3.40;;;3.50;75.90;;;;;;1872862;77;21058;-47
2022/03/06 03:38:03;;;;;;;8.50;4.30;;;3.60;76.30;;;;;;1872821;77;21102;-48
2022/03/06 03:40:32;;;;;;;4.08;3.17;;;3.60;76.40;;;;;;1872748;75;21027;-48
2022/03/06 03:43:01;;;;;;;3.55;3.25;;;3.60;75.70;;;;;;1872801;77;21014;-48
2022/03/06 03:45:31;;;;;;;6.60;3.52;;;3.60;75.50;;;;;;1872792;77;21167;-47
2022/03/06 03:48:01;;;;;;;4.22;3.75;;;3.60;76.00;;;;;;1872809;75;21054;-49
2022/03/06 03:50:30;;;;;;;4.97;3.77;;;3.60;75.80;;;;;;1872785;77;21092;-48
2022/03/06 03:52:59;;;;;;;4.15;3.08;;;3.60;75.70;;;;;;1872781;77;21019;-48
2022/03/06 03:55:28;;;;;;;3.42;2.60;;;3.50;75.40;;;;;;1872819;77;21023;-48
2022/03/06 03:57:58;;;;;;;7.10;3.77;;;3.50;75.50;;;;;;1872817;77;21027;-47
2022/03/06 04:00:27;;;;;;;3.30;2.85;;;3.50;75.40;;;;;;1872823;75;21215;-47
2022/03/06 04:02:57;;;;;;;3.72;3.30;;;3.50;75.40;;;;;;1872894;77;21098;-50
2022/03/06 04:05:26;;;;;;;6.58;5.15;;;3.50;75.60;;;;;;1872813;77;21031;-47
2022/03/06 04:07:55;;;;;;;7.15;3.72;;;3.40;76.00;;;;;;1872853;77;21043;-49
2022/03/06 04:10:25;;;;;;;5.35;3.60;;;3.50;76.20;;;;;;1872935;77;21015;-48
2022/03/06 04:12:54;;;;;;;5.67;4.08;;;3.40;76.10;;;;;;1872707;77;21027;-48
2022/03/06 04:15:24;;;;;;;4.03;3.00;;;3.40;76.20;;;;;;1872761;76;21011;-48
2022/03/06 04:17:53;;;;;;;6.00;3.87;;;3.40;76.20;;;;;;1872729;77;21085;-48
2022/03/06 04:20:22;;;;;;;4.10;3.37;;;3.40;76.10;;;;;;1872776;77;21051;-48
2022/03/06 04:22:51;;;;;;;4.95;2.87;;;3.40;76.10;;;;;;1872735;77;21034;-48
2022/03/06 04:25:21;;;;;;;8.10;4.67;;;3.40;76.70;;;;;;1872661;75;21011;-47
2022/03/06 04:27:50;;;;;;;6.08;3.60;;;3.40;76.50;;;;;;1872641;77;21031;-48
2022/03/06 04:30:19;;;;;;;7.25;4.53;;;3.40;76.60;;;;;;1872770;75;21058;-48
2022/03/06 04:32:49;;;;;;;6.05;4.72;;;3.40;76.50;;;;;;1872622;75;21101;-47
2022/03/06 04:35:18;;;;;;;5.12;3.60;;;3.40;76.90;;;;;;1872787;77;21081;-48
2022/03/06 04:37:47;;;;;;;3.70;3.30;;;3.50;76.30;;;;;;1872737;77;21509;-48
2022/03/06 04:40:16;;;;;;;6.58;3.90;;;3.50;75.90;;;;;;1872703;77;21075;-47
2022/03/06 04:42:46;;;;;;;3.87;2.65;;;3.50;76.10;;;;;;1872797;77;21559;-48
2022/03/06 04:45:15;;;;;;;7.30;4.50;;;3.50;75.90;;;;;;1872716;77;21046;-48
2022/03/06 04:47:44;;;;;;;10.63;5.22;;;3.50;76.30;;;;;;1872667;77;21027;-50
2022/03/06 04:50:13;;;;;;;5.65;4.65;;;3.50;76.00;;;;;;1872667;76;21086;-49
2022/03/06 04:52:43;;;;;;;9.93;4.80;;;3.40;75.90;;;;;;1872610;77;21059;-49
2022/03/06 04:55:12;;;;;;;7.03;4.78;;;3.40;76.20;;;;;;1872698;76;21088;-47
2022/03/06 04:57:45;;;;;;;6.45;3.75;;;3.40;76.70;;;;;;1872774;75;21027;-48
2022/03/06 05:00:13;;;;;;;5.87;4.45;;;3.50;76.70;;;;;;1872692;76;21070;-48
2022/03/06 05:02:43;;;;;;;6.47;4.75;;;3.50;76.80;;;;;;1872603;77;21121;-48
2022/03/06 05:05:12;;;;;;;7.35;5.08;;;3.50;77.10;;;;;;1872887;77;21093;-48
2022/03/06 05:07:41;;;;;;;10.65;4.53;;;3.60;77.20;;;;;;1872779;77;21023;-50
2022/03/06 05:10:11;;;;;;;6.05;4.75;;;3.60;77.10;;;;;;1872865;76;21007;-48
2022/03/06 05:12:41;;;;;;;9.98;5.00;;;3.70;77.00;;;;;;1872787;77;21097;-50
2022/03/06 05:15:12;;;;;;;6.45;4.12;;;3.70;76.60;;;;;;1872748;75;21086;-50
2022/03/06 05:17:42;;;;;;;4.20;3.55;;;3.70;76.70;;;;;;1872844;77;21039;-49
2022/03/06 05:20:12;;;;;;;6.60;3.75;;;3.70;75.50;;;;;;1872765;77;21030;-49
2022/03/06 05:22:43;;;;;;;4.35;3.77;;;3.70;76.30;;;;;;1872752;77;21007;-49
2022/03/06 05:25:12;;;;;;;9.55;4.42;;;3.70;76.10;;;;;;1872737;77;21070;-49
2022/03/06 05:27:41;;;;;;;4.70;4.20;;;3.70;76.50;;;;;;1872774;75;21093;-51
2022/03/06 05:30:12;;;;;;;5.33;4.30;;;3.70;75.90;;;;;;1872717;75;21027;-49
2022/03/06 05:32:42;;;;;;;5.45;4.40;;;3.70;75.80;;;;;;1872799;77;21007;-49
2022/03/06 05:35:11;;;;;;;6.67;4.42;;;3.70;75.20;;;;;;1872929;77;21031;-48
2022/03/06 05:37:40;;;;;;;6.72;3.00;;;3.70;75.60;;;;;;1872872;76;21066;-49
2022/03/06 05:40:10;;;;;;;8.23;3.85;;;3.70;75.00;;;;;;1872850;77;21136;-48
2022/03/06 05:42:39;;;;;;;6.62;3.87;;;3.60;74.50;;;;;;1872757;77;21070;-52
2022/03/06 05:45:09;;;;;;;6.75;4.67;;;3.60;74.30;;;;;;1872825;77;21104;-49
2022/03/06 05:47:38;;;;;;;9.93;5.40;;;3.50;74.80;;;;;;1872758;76;21031;-48
2022/03/06 05:50:08;;;;;;;23.30;7.05;;;3.50;75.00;;;;;;1872749;77;21070;-49
2022/03/06 05:52:38;;;;;;;8.08;4.58;;;3.50;75.50;;;;;;1872787;75;21093;-49
2022/03/06 05:55:08;;;;;;;9.48;5.67;;;3.40;75.30;;;;;;1872741;76;21023;-48
2022/03/06 05:57:37;;;;;;;7.05;4.22;;;3.50;76.00;;;;;;1872731;77;21172;-48
2022/03/06 06:00:08;;;;;;;6.28;5.15;;;3.40;76.80;;;;;;1872892;77;21027;-49
2022/03/06 06:02:38;;;;;;;9.33;5.10;;;3.50;77.30;;;;;;1872871;75;21135;-49
2022/03/06 06:05:08;;;;;;;8.30;5.20;;;3.50;77.70;;;;;;1872897;77;21090;-48
2022/03/06 06:07:38;;;;;;;5.12;4.08;;;3.50;77.80;;;;;;1872862;77;21106;-50
2022/03/06 06:10:08;;;;;;;8.18;6.03;;;3.50;78.30;;;;;;1872896;76;21063;-48
2022/03/06 06:12:37;;;;;;;7.08;5.30;;;3.50;77.90;;;;;;1872746;77;21062;-48
2022/03/06 06:15:08;;;;;;;8.53;5.22;;;3.50;78.20;;;;;;1872861;77;21089;-49
2022/03/06 06:17:37;;;;;;;8.25;5.75;;;3.60;78.60;;;;;;1872763;76;21410;-50
2022/03/06 06:20:08;;;;;;;7.72;5.60;;;3.50;78.80;;;;;;1872859;77;21027;-48
2022/03/06 06:22:38;;;;;;;6.40;5.33;;;3.60;79.10;;;;;;1872687;76;21074;-50
2022/03/06 06:25:07;;;;;;;7.35;6.15;;;3.50;78.80;;;;;;1872843;75;21050;-48
2022/03/06 06:27:37;;;;;;;2.10;1.98;;;3.50;79.50;;;;;;1872789;77;21089;-49
2022/03/06 06:30:07;;;;;;;5.80;4.08;;;3.40;80.30;;;;;;1872801;77;21482;-48
2022/03/06 06:32:37;;;;;;;6.85;4.78;;;3.40;79.10;;;;;;1872777;75;21161;-48
2022/03/06 06:35:07;;;;;;;5.62;4.85;;;3.40;79.50;;;;;;1872769;77;21098;-49
2022/03/06 06:37:37;;;;;;;5.55;4.53;;;3.40;79.60;;;;;;1872748;75;21086;-49
2022/03/06 06:40:07;;;;;;;7.58;4.60;;;3.50;79.60;;;;;;1872826;76;21031;-51
2022/03/06 06:42:36;;;;;;;5.55;4.42;;;3.50;79.70;;;;;;1872710;76;21097;-49
2022/03/06 06:45:06;;;;;;;5.17;4.67;;;3.50;79.40;;;;;;1872784;77;21043;-48
2022/03/06 06:47:36;;;;;;;6.30;4.75;;;3.50;79.40;;;;;;1872793;77;21008;-50
2022/03/06 06:50:05;;;;;;;3.72;3.25;;;3.50;79.40;;;;;;1872806;76;21050;-48
2022/03/06 06:52:35;;;;;;;7.22;4.20;;;3.50;79.60;;;;;;1872675;77;21031;-48
2022/03/06 06:55:05;;;;;;;4.85;3.72;;;3.60;79.70;;;;;;1872816;76;21030;-48
2022/03/06 06:57:35;;;;;;;5.33;4.62;;;3.60;79.90;;;;;;1872785;76;21093;-48
2022/03/06 07:00:05;;;;;;;5.47;4.17;;;3.50;79.40;;;;;;1872818;77;21027;-49
2022/03/06 07:02:35;;;;;;;7.05;5.37;;;3.50;79.10;;;;;;1872707;77;21054;-48
2022/03/06 07:05:04;;;;;;;7.97;5.50;;;3.50;80.10;;;;;;1872818;76;21027;-48
2022/03/06 07:07:34;;;;;;;7.83;5.40;;;3.40;79.70;;;;;;1872946;76;21007;-49
2022/03/06 07:10:05;;;;;;;6.10;4.70;;;3.50;79.80;;;;;;1872775;77;21098;-49
2022/03/06 07:12:45;;;;;;;7.65;5.00;;;3.60;80.20;;;;;;1872812;75;21007;-48
2022/03/06 07:15:15;;;;;;;7.67;4.90;;;3.60;80.40;;;;;;1872357;76;21457;-48
2022/03/06 07:17:44;;;;;;;7.03;6.20;;;3.60;79.80;;;;;;1872637;77;21031;-48
2022/03/06 07:20:14;;;;;;;6.85;5.30;;;3.60;79.70;;;;;;1872642;77;21027;-48
2022/03/06 07:22:43;;;;;;;7.28;6.30;;;3.70;80.40;;;;;;1872856;77;21108;-50
2022/03/06 07:25:13;;;;;;;12.13;6.53;;;3.80;80.50;;;;;;1872774;76;21031;-48
2022/03/06 07:27:42;;;;;;;6.60;5.47;;;3.80;80.50;;;;;;1872749;76;21186;-48
2022/03/06 07:30:12;;;;;;;8.48;6.92;;;3.90;80.70;;;;;;1872841;77;21007;-48
2022/03/06 07:32:47;;;;;;;6.92;5.75;;;4.00;80.60;;;;;;1872686;75;21117;-48
2022/03/06 07:35:18;;;;;;;6.58;5.70;;;4.10;80.40;;;;;;1873050;76;21117;-49
2022/03/06 07:37:48;;;;;;;8.80;6.70;;;4.20;80.50;;;;;;1872758;77;21503;-51
2022/03/06 07:40:18;;;;;;;7.55;5.72;;;4.20;79.50;;;;;;1872635;77;21163;-49
2022/03/06 07:42:48;;;;;;;7.67;5.40;;;4.10;79.80;;;;;;1872702;77;21023;-48
2022/03/06 07:45:18;;;;;;;6.72;5.00;;;4.10;80.20;;;;;;1872860;76;21031;-48
2022/03/06 07:47:48;;;;;;;10.30;5.40;;;4.20;80.00;;;;;;1872807;75;21105;-48
2022/03/06 07:50:18;;;;;;;7.17;5.87;;;4.20;79.70;;;;;;1872703;76;21027;-48
2022/03/06 07:52:48;;;;;;;6.47;4.83;;;4.10;79.40;;;;;;1872577;77;21087;-48
2022/03/06 07:55:17;;;;;;;5.87;5.20;;;4.10;79.70;;;;;;1872699;77;21101;-49
2022/03/06 07:57:46;;;;;;;8.68;6.00;;;4.10;80.20;;;;;;1872576;75;21035;-48
2022/03/06 08:00:16;;;;;;;7.75;5.60;;;4.10;80.70;;;;;;1872702;75;21039;-49
2022/03/06 08:02:45;;;;;;;11.03;5.78;;;4.10;80.00;;;;;;1872659;77;21027;-48
2022/03/06 08:05:15;;;;;;;9.48;6.70;;;4.20;80.30;;;;;;1872906;77;21043;-49
2022/03/06 08:07:44;;;;;;;6.40;5.58;;;4.20;80.50;;;;;;1872856;77;21066;-48
2022/03/06 08:10:14;;;;;;;9.08;6.15;;;4.20;79.90;;;;;;1872736;77;21085;-48
2022/03/06 08:12:43;;;;;;;7.87;6.22;;;4.10;79.80;;;;;;1872654;77;21031;-48
2022/03/06 08:15:12;;;;;;;6.30;5.55;;;4.10;80.20;;;;;;1872810;77;21043;-49
2022/03/06 08:17:42;;;;;;;6.70;5.92;;;4.10;80.20;;;;;;1872754;77;21028;-50
2022/03/06 08:20:12;;;;;;;5.40;4.90;;;4.20;80.20;;;;;;1872745;77;21026;-47
2022/03/06 08:22:41;;;;;;;7.50;5.72;;;4.20;80.00;;;;;;1872663;77;21028;-48
2022/03/06 08:25:11;;;;;;;5.92;5.33;;;4.20;80.20;;;;;;1872782;77;21129;-48
2022/03/06 08:27:40;;;;;;;5.22;4.65;;;4.30;79.40;;;;;;1872677;77;21074;-48
2022/03/06 08:30:10;;;;;;;5.30;4.80;;;4.20;78.20;;;;;;1872889;77;21120;-48
2022/03/06 08:32:40;;;;;;;6.97;6.22;;;4.20;77.80;;;;;;1872681;75;21145;-48
2022/03/06 08:35:10;;;;;;;6.30;5.65;;;4.20;79.10;;;;;;1872709;77;21176;-48
2022/03/06 08:37:41;;;;;;;9.78;7.05;;;4.20;78.70;;;;;;1872690;77;21090;-48
2022/03/06 08:40:10;;;;;;;4.12;3.72;;;4.30;79.00;;;;;;1872749;77;21055;-49
2022/03/06 08:42:40;;;;;;;12.15;5.75;;;4.40;78.10;;;;;;1872717;75;21031;-48
2022/03/06 08:45:09;;;;;;;5.80;5.08;;;4.40;78.20;;;;;;1872739;75;21074;-47
2022/03/06 08:47:38;;;;;;;6.55;5.60;;;4.30;77.20;;;;;;1873103;77;21003;-48
2022/03/06 08:50:08;;;;;;;11.05;8.03;;;4.30;78.60;;;;;;1872708;77;21019;-49
2022/03/06 08:52:37;;;;;;;8.43;6.83;;;4.30;78.20;;;;;;1872781;77;21003;-48
2022/03/06 08:55:08;;;;;;;9.90;8.33;;;4.30;77.40;;;;;;1872884;76;21023;-48
2022/03/06 08:57:38;;;;;;;8.03;6.03;;;4.20;77.90;;;;;;1872815;77;21035;-48
2022/03/06 09:00:08;;;;;;;9.03;6.47;;;4.20;78.40;;;;;;1872755;76;21031;-48
2022/03/06 09:02:37;;;;;;;13.10;8.15;;;4.20;78.20;;;;;;1872712;76;21047;-48
2022/03/06 09:05:07;;;;;;;5.72;4.78;;;4.20;78.60;;;;;;1872989;76;21019;-48
2022/03/06 09:07:37;;;;;;;8.78;7.25;;;4.20;77.90;;;;;;1872825;77;21089;-50
2022/03/06 09:10:07;;;;;;;10.18;8.15;;;4.20;78.60;;;;;;1872772;77;21000;-50
2022/03/06 09:12:36;;;;;;;9.68;7.92;;;4.20;78.30;;;;;;1872918;77;21051;-48
2022/03/06 09:15:07;;;;;;;10.78;8.08;;;4.20;78.40;;;;;;1872780;77;21085;-49
2022/03/06 09:17:36;;;;;;;11.50;7.53;;;4.20;78.00;;;;;;1872802;76;21100;-51
2022/03/06 09:20:06;;;;;;;8.28;6.20;;;4.10;78.50;;;;;;1872800;77;21097;-47
2022/03/06 09:22:36;;;;;;;11.57;9.35;;;4.10;78.60;;;;;;1872887;76;21031;-49
2022/03/06 09:25:05;;;;;;;13.18;10.72;;;4.00;78.80;;;;;;1872907;75;21011;-49
2022/03/06 09:27:35;;;;;;;7.40;6.20;;;4.00;79.40;;;;;;1872768;77;21105;-50
2022/03/06 09:30:06;;;;;;;8.35;6.58;;;4.10;79.00;;;;;;1872861;77;21031;-50
2022/03/06 09:32:35;;;;;;;6.53;5.50;;;4.10;78.80;;;;;;1872797;76;21027;-51
2022/03/06 09:35:05;;;;;;;14.23;10.13;;;4.10;77.90;;;;;;1872891;76;21182;-49
2022/03/06 09:37:34;;;;;;;11.38;8.80;;;4.10;78.80;;;;;;1872876;76;21088;-51
2022/03/06 09:40:05;;;;;;;16.82;8.93;;;4.10;78.60;;;;;;1872873;75;21434;-48
2022/03/06 09:42:35;;;;;;;10.40;8.60;;;4.10;78.30;;;;;;1872825;77;21031;-48
2022/03/06 09:45:08;;;;;;;8.25;6.33;;;4.10;78.20;;;;;;1872892;76;21035;-50
2022/03/06 09:47:38;;;;;;;9.23;7.50;;;4.10;78.00;;;;;;1872906;76;21410;-48
2022/03/06 09:50:09;;;;;;;11.28;9.40;;;4.10;77.80;;;;;;1872813;77;21081;-49
2022/03/06 09:52:38;;;;;;;8.73;5.62;;;4.10;78.20;;;;;;1872824;77;21027;-49
2022/03/06 09:55:09;;;;;;;10.13;7.40;;;4.10;77.60;;;;;;1872917;77;21093;-48
2022/03/06 09:57:38;;;;;;;4.47;3.50;;;4.20;77.90;;;;;;1872898;76;21092;-48
2022/03/06 10:00:09;;;;;;;9.83;7.97;;;4.20;76.70;;;;;;1873091;77;21007;-49
2022/03/06 10:02:57;;;;;;;8.95;6.80;;;4.20;77.50;;;;;;1872835;76;21093;-48
2022/03/06 10:05:28;;;;;;;10.85;8.33;;;4.30;77.50;;;;;;1872944;77;21035;-50
2022/03/06 10:08:18;;;;;;;13.68;7.87;;;4.30;77.40;;;;;;1872650;77;21462;-48
2022/03/06 10:10:49;;;;;;;9.38;6.58;;;4.40;81.60;;;;;;1836132;76;21027;-47
2022/03/06 10:13:21;;;;;;;7.30;4.60;;;4.50;77.00;;;;;;1869404;76;21490;-50
2022/03/06 10:16:09;;;;;;;8.58;6.60;;;4.50;75.50;;;;;;1872398;76;21091;-50
2022/03/06 10:18:44;;;;;;;8.65;5.62;;;4.40;76.20;;;;;;1871324;77;21055;-49
2022/03/06 10:21:24;;;;;;;10.93;8.23;;;4.40;76.00;;;;;;1871789;76;21047;-47
2022/03/06 10:23:55;;;;;;;9.85;6.87;;;4.30;75.60;;;;;;1871250;76;21144;-46
2022/03/06 10:26:30;;;;;;;8.73;7.22;;;4.40;76.40;;;;;;1871820;76;21031;-46
2022/03/06 10:29:01;;;;;;;9.53;7.37;;;4.50;76.60;;;;;;1871715;76;21164;-46
2022/03/06 10:31:32;;;;;;;6.92;5.75;;;4.50;75.50;;;;;;1872622;77;21124;-46
2022/03/06 10:34:07;;;;;;;6.75;4.45;;;4.60;74.90;;;;;;1872695;75;21066;-46
2022/03/06 10:36:48;;;;;;;7.42;5.65;;;4.60;74.10;;;;;;1886208;75;21153;-47
2022/03/06 10:39:23;;;;;;;10.88;7.00;;;4.60;75.30;;;;;;1881867;75;21525;-46
2022/03/06 10:41:54;;;;;;;6.83;6.03;;;4.60;76.10;;;;;;1890344;75;21029;-47
2022/03/06 10:44:25;;;;;;;8.20;6.97;;;4.60;74.30;;;;;;1899480;75;21059;-50
2022/03/06 10:47:03;;;;;;;11.85;6.58;;;4.70;76.70;;;;;;1903797;74;21087;-52
2022/03/06 10:49:33;;;;;;;10.45;7.10;;;4.90;75.20;;;;;;1904443;74;21446;-50
2022/03/06 10:52:19;;;;;;;4.50;3.80;;;5.00;75.40;;;;;;1905348;75;21077;-50
2022/03/06 10:54:57;;;;;;;7.22;6.10;;;5.00;71.90;;;;;;1905004;74;21081;-53
2022/03/06 10:57:27;;;;;;;8.18;6.40;;;5.00;74.40;;;;;;1904931;75;21058;-54
2022/03/06 10:59:58;;;;;;;7.45;5.78;;;5.00;76.40;;;;;;1903988;75;21301;-51
2022/03/06 11:02:28;;;;;;;8.10;5.53;;;5.20;73.50;;;;;;1903996;75;21028;-50
2022/03/06 11:04:58;;;;;;;7.83;6.22;;;5.20;74.50;;;;;;1903762;75;21099;-51
2022/03/06 11:07:30;;;;;;;9.10;6.40;;;5.30;74.90;;;;;;1904283;75;20995;-50
2022/03/06 11:10:00;;;;;;;10.03;6.65;;;5.30;75.00;;;;;;1890906;75;21078;-53
2022/03/06 11:12:32;;;;;;;8.35;6.83;;;5.40;75.70;;;;;;1874847;75;21007;-52
2022/03/06 11:15:02;;;;;;;11.68;8.20;;;5.60;73.30;;;;;;1836674;77;21093;-54
2022/03/06 11:17:32;;;;;;;7.67;6.78;;;5.60;70.80;;;;;;1871960;76;21098;-53
2022/03/06 11:20:02;;;;;;;9.43;6.05;;;5.40;72.80;;;;;;1846157;77;21068;-58
2022/03/06 11:22:45;;;;;;;6.87;6.12;;;5.40;74.30;;;;;;1890941;75;21016;-53
2022/03/06 11:25:17;;;;;;;10.95;6.85;;;5.40;73.50;;;;;;1898214;75;21446;-54
2022/03/06 11:27:52;;;;;;;7.20;6.08;;;5.40;74.50;;;;;;1883656;75;21030;-54
2022/03/06 11:30:21;;;;;;;;;;;5.50;74.70;;;;;;1903781;75;20984;-52
2022/03/06 11:33:06;;;;;;;5.58;3.87;;;5.50;69.30;;;;;;1888317;75;20353;-53
2022/03/06 11:35:37;;;;;;;7.50;6.67;;;5.40;69.80;;;;;;1879809;76;21028;-52
2022/03/06 11:38:09;;;;;;;8.53;5.40;;;5.30;73.00;;;;;;1882841;75;21100;-53
2022/03/06 11:40:55;;;;;;;8.58;5.12;;;5.20;73.80;;;;;;1884493;75;21006;-53
2022/03/06 11:43:42;;;;;;;7.08;5.72;;;5.30;74.20;;;;;;1884399;75;21039;-51
2022/03/06 11:46:21;;;;;;;9.05;6.97;;;5.30;73.50;;;;;;1846610;76;21100;-53
2022/03/06 11:48:53;;;;;;;8.43;5.70;;;5.40;74.10;;;;;;1894155;74;21109;-52
2022/03/06 11:51:33;;;;;;;9.48;6.22;;;5.40;72.70;;;;;;1835527;78;21190;-54
2022/03/06 11:54:11;;;;;;;6.90;5.40;;;5.40;71.40;;;;;;1921259;74;21020;-54
2022/03/06 11:56:46;;;;;;;7.85;4.80;;;5.30;73.30;;;;;;1924427;74;21074;-52
2022/03/06 11:59:24;;;;;;;6.70;5.85;;;5.20;70.60;;;;;;1918950;74;21089;-54
2022/03/06 12:02:08;;;;;;;7.15;5.75;;;5.20;71.80;;;;;;1919211;74;21023;-55
2022/03/06 12:04:40;;;;;;;8.25;6.47;;;5.10;72.50;;;;;;1848781;76;21037;-53
2022/03/06 12:07:10;;;;;;;8.00;6.15;;;5.00;72.30;;;;;;1901091;74;21547;-53
2022/03/06 12:09:44;;;;;;;7.10;5.65;;;4.90;72.90;;;;;;1816678;78;21207;-53
2022/03/06 12:12:16;;;;;;;8.20;5.70;;;5.00;72.90;;;;;;1891564;76;21006;-53
2022/03/06 12:14:56;;;;;;;6.75;5.12;;;4.90;72.80;;;;;;1845955;78;21005;-53
2022/03/06 12:17:31;;;;;;;5.95;5.33;;;4.90;73.30;;;;;;1916613;74;21129;-53
2022/03/06 12:20:05;;;;;;;8.00;6.25;;;5.00;73.10;;;;;;1828239;78;21125;-54
2022/03/06 12:22:37;;;;;;;7.83;6.50;;;5.00;73.40;;;;;;1923442;74;21086;-53
2022/03/06 12:25:11;;;;;;;8.13;6.25;;;5.00;73.40;;;;;;1909027;74;21530;-53
2022/03/06 12:27:42;;;;;;;7.97;6.85;;;5.00;73.90;;;;;;1850722;76;21449;-53
2022/03/06 12:30:13;;;;;;;7.80;5.62;;;5.10;74.80;;;;;;1893720;74;21042;-54
2022/03/06 12:32:43;;;;;;;8.50;7.42;;;5.20;73.60;;;;;;1848724;76;21117;-53
2022/03/06 12:35:22;;;;;;;12.05;8.95;;;5.20;73.60;;;;;;1891197;75;21067;-54
2022/03/06 12:38:01;;;;;;;5.87;4.45;;;5.10;74.00;;;;;;1864643;76;21129;-53
2022/03/06 12:40:32;;;;;;;13.98;9.28;;;5.10;74.10;;;;;;1900219;75;21082;-54
2022/03/06 12:43:08;;;;;;;9.50;6.75;;;5.10;74.00;;;;;;1905385;75;21015;-51
2022/03/06 12:45:38;;;;;;;11.43;8.18;;;5.00;74.10;;;;;;1905506;75;21093;-53
2022/03/06 12:48:08;;;;;;;11.25;8.83;;;4.90;74.00;;;;;;1903161;74;21089;-54
2022/03/06 12:50:37;;;;;;;14.10;9.23;;;4.80;75.00;;;;;;1905473;75;21117;-54
2022/03/06 12:53:06;;;;;;;13.18;8.93;;;4.70;74.90;;;;;;1887205;74;21105;-53
2022/03/06 12:55:36;;;;;;;6.08;4.12;;;4.70;75.20;;;;;;1886644;75;21003;-52
2022/03/06 12:58:05;;;;;;;9.38;6.80;;;4.60;74.70;;;;;;1879776;75;21184;-54
2022/03/06 13:00:36;;;;;;;10.68;8.25;;;4.60;74.60;;;;;;1883620;75;21109;-53
2022/03/06 13:03:07;;;;;;;15.15;9.88;;;4.50;75.30;;;;;;1902897;75;21007;-53
2022/03/06 13:05:39;;;;;;;13.20;9.40;;;4.50;75.50;;;;;;1905369;75;21011;-54
2022/03/06 13:08:08;;;;;;;10.95;8.40;;;4.60;76.10;;;;;;1887932;75;21447;-54
2022/03/06 13:10:37;;;;;;;12.45;8.85;;;4.70;75.50;;;;;;1888428;75;21000;-54
2022/03/06 13:13:08;;;;;;;11.05;8.53;;;4.70;75.30;;;;;;1889089;75;21183;-51